Time;durP1;ratioP1;P1;durP2;ratioP2;P2;SDS_P1;SDS_P2;PMS_P1;PMS_P2;Temp;Humidity;BMP_temperature;BMP_pressure;BME280_temperature;BME280_humidity;BME280_pressure;Samples;Min_cycle;Max_cycle;Signal;HPM_P1;HPM_P2
2021/10/06 00:01:15;;;;;;;;;;;11.00;99.90;;;;;;4994681;28;19930;-72
2021/10/06 00:03:47;;;;;;;;;;;11.00;99.90;;;;;;5012666;28;19932;-73
2021/10/06 00:06:14;;;;;;;;;;;10.90;99.90;;;;;;4994527;28;19926;-73
2021/10/06 00:08:45;;;;;;;;;;;10.90;99.90;;;;;;5011236;28;19925;-73
2021/10/06 00:11:17;;;;;;;;;;;10.90;99.90;;;;;;4995187;28;19932;-73
2021/10/06 00:13:49;;;;;;;;;;;10.90;99.90;;;;;;5012897;28;19972;-73
2021/10/06 00:16:16;;;;;;;;;;;10.80;99.90;;;;;;4994593;28;19929;-72
2021/10/06 00:18:43;;;;;;;;;;;10.80;99.90;;;;;;5012343;28;19925;-73
2021/10/06 00:21:15;;;;;;;;;;;10.80;99.90;;;;;;4994391;28;19925;-73
2021/10/06 00:23:47;;;;;;;;;;;10.80;99.90;;;;;;5010988;28;20319;-73
2021/10/06 00:26:18;;;;;;;;;;;10.70;99.90;;;;;;4994587;28;19933;-73
2021/10/06 00:28:50;;;;;;;;;;;10.70;99.90;;;;;;4994712;28;20372;-73
2021/10/06 00:31:17;;;;;;;;;;;10.70;99.90;;;;;;5010920;28;20234;-72
2021/10/06 00:33:49;;;;;;;;;;;10.70;99.90;;;;;;4996784;28;19929;-73
2021/10/06 00:36:21;;;;;;;;;;;10.70;99.90;;;;;;5015945;28;20384;-73
2021/10/06 00:38:48;;;;;;;;;;;10.70;99.90;;;;;;5014790;28;19929;-74
2021/10/06 00:41:19;;;;;;;;;;;10.70;99.90;;;;;;4998293;28;19980;-73
2021/10/06 00:43:51;;;;;;;;;;;10.70;99.90;;;;;;5015906;28;19957;-73
2021/10/06 00:46:23;;;;;;;;;;;10.70;99.90;;;;;;4998029;28;19930;-73
2021/10/06 00:48:50;;;;;;;;;;;10.70;99.90;;;;;;4998375;28;19929;-73
2021/10/06 00:51:17;;;;;;;;;;;10.70;99.90;;;;;;4998283;28;19926;-73
2021/10/06 00:53:48;;;;;;;;;;;10.70;99.90;;;;;;4998086;28;19933;-73
2021/10/06 00:56:20;;;;;;;;;;;10.70;99.90;;;;;;5015334;28;20422;-73
2021/10/06 00:58:47;;;;;;;;;;;10.70;99.90;;;;;;4997902;28;19925;-73
2021/10/06 01:01:14;;;;;;;;;;;10.60;99.90;;;;;;4997362;28;19925;-73
2021/10/06 01:03:46;;;;;;;;;;;10.70;99.90;;;;;;5013998;28;19932;-72
2021/10/06 01:06:18;;;;;;;;;;;10.70;99.90;;;;;;4997226;28;19931;-73
2021/10/06 01:08:45;;;;;;;;;;;10.60;99.90;;;;;;5014854;28;19926;-73
2021/10/06 01:11:16;;;;;;;;;;;10.70;99.90;;;;;;4996999;28;19926;-73
2021/10/06 01:13:48;;;;;;;;;;;10.70;99.90;;;;;;5014989;28;19933;-73
2021/10/06 01:16:16;;;;;;;;;;;10.70;99.90;;;;;;5013198;28;19930;-73
2021/10/06 01:18:47;;;;;;;;;;;10.70;99.90;;;;;;5014681;28;19972;-73
2021/10/06 01:21:15;;;;;;;;;;;10.70;99.90;;;;;;4996889;28;20308;-73
2021/10/06 01:23:48;;;;;;;;;;;10.70;99.90;;;;;;4996848;28;19932;-72
2021/10/06 01:26:18;;;;;;;;;;;10.60;99.90;;;;;;5013111;28;19926;-73
2021/10/06 01:28:46;;;;;;;;;;;10.60;99.90;;;;;;4997561;28;19925;-72
2021/10/06 01:31:13;;;;;;;;;;;10.60;99.90;;;;;;4996905;28;19932;-73
2021/10/06 01:33:41;;;;;;;;;;;10.60;99.90;;;;;;4997271;28;19934;-73
2021/10/06 01:36:12;;;;;;;;;;;10.60;99.90;;;;;;4997044;28;19926;-73
2021/10/06 01:38:44;;;;;;;;;;;10.60;99.90;;;;;;4997012;28;19932;-73
2021/10/06 01:41:11;;;;;;;;;;;10.50;99.90;;;;;;4997139;28;19929;-73
2021/10/06 01:43:43;;;;;;;;;;;10.50;99.90;;;;;;4996483;28;19989;-73
2021/10/06 01:46:10;;;;;;;;;;;10.50;99.90;;;;;;5012739;28;19929;-73
2021/10/06 01:48:41;;;;;;;;;;;10.50;99.90;;;;;;4996386;28;19932;-72
2021/10/06 01:51:08;;;;;;;;;;;10.50;99.90;;;;;;5014054;28;19926;-73
2021/10/06 01:53:40;;;;;;;;;;;10.60;99.90;;;;;;4997167;28;20383;-73
2021/10/06 01:56:12;;;;;;;;;;;10.60;99.90;;;;;;4997112;28;20389;-73
2021/10/06 01:58:47;;;;;;;;;;;10.60;99.90;;;;;;4996865;28;19968;-73
2021/10/06 02:01:14;;;;;;;;;;;10.60;99.90;;;;;;5014321;28;19933;-73
2021/10/06 02:03:46;;;;;;;;;;;10.60;99.90;;;;;;4997829;28;19925;-72
2021/10/06 02:06:13;;;;;;;;;;;10.60;99.90;;;;;;4996613;28;19925;-72
2021/10/06 02:08:45;;;;;;;;;;;10.60;99.90;;;;;;4996782;28;19933;-73
2021/10/06 02:11:17;;;;;;;;;;;10.60;99.90;;;;;;4996772;28;19926;-73
2021/10/06 02:13:49;;;;;;;;;;;10.60;99.90;;;;;;4996526;28;19925;-73
2021/10/06 02:16:21;;;;;;;;;;;10.60;99.90;;;;;;4996325;28;19975;-73
2021/10/06 02:18:47;;;;;;;;;;;10.60;99.90;;;;;;4996419;28;19926;-73
2021/10/06 02:21:14;;;;;;;;;;;10.60;99.90;;;;;;4996572;28;19935;-73
2021/10/06 02:23:46;;;;;;;;;;;10.60;99.90;;;;;;4996367;28;19933;-73
2021/10/06 02:26:18;;;;;;;;;;;10.60;99.90;;;;;;4996235;28;19925;-73
2021/10/06 02:28:49;;;;;;;;;;;10.60;99.90;;;;;;4980996;28;19925;-73
2021/10/06 02:31:21;;;;;;;;;;;10.60;99.90;;;;;;5012599;28;20411;-73
2021/10/06 02:33:53;;;;;;;;;;;10.60;99.90;;;;;;5013895;28;19925;-73
2021/10/06 02:36:25;;;;;;;;;;;10.50;99.90;;;;;;5013573;28;19965;-73
2021/10/06 02:38:57;;;;;;;;;;;10.50;99.90;;;;;;4995892;28;20331;-73
2021/10/06 02:41:28;;;;;;;;;;;10.50;99.90;;;;;;4996298;28;19932;-72
2021/10/06 02:44:00;;;;;;;;;;;10.50;99.90;;;;;;4996002;28;19973;-73
2021/10/06 02:46:32;;;;;;;;;;;10.50;99.90;;;;;;5013672;28;20293;-73
2021/10/06 02:48:59;;;;;;;;;;;10.50;99.90;;;;;;5013486;28;19926;-73
2021/10/06 02:51:32;;;;;;;;;;;10.40;99.90;;;;;;5012490;28;19926;-73
2021/10/06 02:54:04;;;;;;;;;;;10.40;99.90;;;;;;4995752;28;20315;-74
2021/10/06 02:56:35;;;;;;;;;;;10.40;99.90;;;;;;4995258;28;19925;-73
2021/10/06 02:59:07;;;;;;;;;;;10.40;99.90;;;;;;5013418;28;19925;-73
2021/10/06 03:01:39;;;;;;;;;;;10.40;99.90;;;;;;4995753;28;19925;-72
2021/10/06 03:04:11;;;;;;;;;;;10.40;99.90;;;;;;4995515;28;19929;-73
2021/10/06 03:06:42;;;;;;;;;;;10.40;99.90;;;;;;5013215;28;19948;-73
2021/10/06 03:09:11;;;;;;;;;;;10.30;99.90;;;;;;4995595;28;19925;-73
2021/10/06 03:11:38;;;;;;;;;;;10.30;99.90;;;;;;4995640;28;19925;-73
2021/10/06 03:14:10;;;;;;;;;;;10.30;99.90;;;;;;4995165;28;19933;-73
2021/10/06 03:16:42;;;;;;;;;;;10.30;99.90;;;;;;4995565;28;19926;-73
2021/10/06 03:19:08;;;;;;;;;;;10.30;99.90;;;;;;5013003;28;19972;-73
2021/10/06 03:21:35;;;;;;;;;;;10.30;99.90;;;;;;5011717;28;19925;-72
2021/10/06 03:24:07;;;;;;;;;;;10.20;99.90;;;;;;5012930;28;20472;-73
2021/10/06 03:26:39;;;;;;;;;;;10.20;99.90;;;;;;5013070;28;19926;-73
2021/10/06 03:29:11;;;;;;;;;;;10.20;99.90;;;;;;5013295;28;19929;-73
2021/10/06 03:31:43;;;;;;;;;;;10.20;99.90;;;;;;5012890;28;20418;-73
2021/10/06 03:34:15;;;;;;;;;;;10.20;99.90;;;;;;4994972;28;20415;-73
2021/10/06 03:36:47;;;;;;;;;;;10.20;99.90;;;;;;5012592;28;20380;-72
2021/10/06 03:39:13;;;;;;;;;;;10.20;99.90;;;;;;5012531;28;19933;-73
2021/10/06 03:41:45;;;;;;;;;;;10.20;99.90;;;;;;4995114;28;19925;-73
2021/10/06 03:44:17;;;;;;;;;;;10.10;99.90;;;;;;4994756;28;19933;-73
2021/10/06 03:46:49;;;;;;;;;;;10.10;99.90;;;;;;5011534;28;19932;-72
2021/10/06 03:49:15;;;;;;;;;;;10.10;99.90;;;;;;5012620;28;20282;-73
2021/10/06 03:51:47;;;;;;;;;;;10.10;99.90;;;;;;4994990;28;19929;-73
2021/10/06 03:54:14;;;;;;;;;;;10.10;99.90;;;;;;5011577;28;19925;-74
2021/10/06 03:56:41;;;;;;;;;;;10.10;99.90;;;;;;5010817;28;19936;-73
2021/10/06 03:59:12;;;;;;;;;;;10.10;99.90;;;;;;5011921;28;19925;-72
2021/10/06 04:01:39;;;;;;;;;;;10.10;99.90;;;;;;4994265;28;19926;-73
2021/10/06 04:04:11;;;;;;;;;;;10.10;99.90;;;;;;4994796;28;19957;-72
2021/10/06 04:06:43;;;;;;;;;;;10.10;99.90;;;;;;5011872;28;19981;-72
2021/10/06 04:09:15;;;;;;;;;;;10.10;99.90;;;;;;5011542;28;19932;-73
2021/10/06 04:11:41;;;;;;;;;;;10.10;99.90;;;;;;4974063;28;19930;-74
2021/10/06 04:14:13;;;;;;;;;;;10.00;99.90;;;;;;4975914;28;19925;-73
2021/10/06 04:16:45;;;;;;;;;;;10.10;99.90;;;;;;4972919;28;19926;-73
2021/10/06 04:19:16;;;;;;;;;;;10.00;99.90;;;;;;4973849;28;20014;-73
2021/10/06 04:21:48;;;;;;;;;;;10.00;99.90;;;;;;4991229;28;19932;-73
2021/10/06 04:24:20;;;;;;;;;;;10.00;99.90;;;;;;4973767;28;20028;-73
2021/10/06 04:26:51;;;;;;;;;;;10.00;99.90;;;;;;4991243;28;20341;-72
2021/10/06 04:29:18;;;;;;;;;;;10.00;99.90;;;;;;4973928;28;19930;-73
2021/10/06 04:31:50;;;;;;;;;;;10.00;99.90;;;;;;4973884;28;19929;-74
2021/10/06 04:34:16;;;;;;;;;;;10.00;99.90;;;;;;4974025;28;19926;-74
2021/10/06 04:36:48;;;;;;;;;;;10.00;99.90;;;;;;4990717;28;19926;-74
2021/10/06 04:39:15;;;;;;;;;;;10.00;99.90;;;;;;4988331;28;19932;-73
2021/10/06 04:41:46;;;;;;;;;;;10.00;99.90;;;;;;4988750;28;20369;-73
2021/10/06 04:44:13;;;;;;;;;;;10.00;99.90;;;;;;4973352;28;20056;-73
2021/10/06 04:46:41;;;;;;;;;;;10.00;99.90;;;;;;4974349;28;19930;-73
2021/10/06 04:49:08;;;;;;;;;;;10.00;99.90;;;;;;4957239;28;19925;-73
2021/10/06 04:51:39;;;;;;;;;;;9.90;99.90;;;;;;4973937;28;19932;-73
2021/10/06 04:54:06;;;;;;;;;;;9.90;99.90;;;;;;4973823;28;20046;-73
2021/10/06 04:56:38;;;;;;;;;;;9.90;99.90;;;;;;4972673;28;20373;-73
2021/10/06 04:59:04;;;;;;;;;;;9.90;99.90;;;;;;4973605;28;19932;-73
2021/10/06 05:01:36;;;;;;;;;;;9.90;99.90;;;;;;4991640;28;20008;-73
2021/10/06 05:04:08;;;;;;;;;;;9.90;99.90;;;;;;4957935;28;20384;-71
2021/10/06 05:06:39;;;;;;;;;;;9.90;99.90;;;;;;4973684;28;20024;-73
2021/10/06 05:09:06;;;;;;;;;;;9.90;99.90;;;;;;4973536;28;19932;-72
2021/10/06 05:11:33;;;;;;;;;;;9.80;99.90;;;;;;4973851;28;20411;-73
2021/10/06 05:14:04;;;;;;;;;;;9.80;99.90;;;;;;4973006;28;19925;-72
2021/10/06 05:16:31;;;;;;;;;;;9.90;99.90;;;;;;4991055;28;19963;-73
2021/10/06 05:18:57;;;;;;;;;;;9.90;99.90;;;;;;4974051;28;19965;-73
2021/10/06 05:21:29;;;;;;;;;;;9.80;99.90;;;;;;4960957;28;20415;-73
2021/10/06 05:24:01;;;;;;;;;;;9.80;99.90;;;;;;5005178;28;20036;-71
2021/10/06 05:26:32;;;;;;;;;;;9.80;99.90;;;;;;4996416;28;19925;-73
2021/10/06 05:29:04;;;;;;;;;;;9.80;99.90;;;;;;4989961;28;19926;-73
2021/10/06 05:31:31;;;;;;;;;;;9.80;99.90;;;;;;4996169;28;19926;-73
2021/10/06 05:33:57;;;;;;;;;;;9.80;99.90;;;;;;4987588;28;20020;-72
2021/10/06 05:36:29;;;;;;;;;;;9.70;99.90;;;;;;4993893;28;19926;-73
2021/10/06 05:39:01;;;;;;;;;;;9.70;99.90;;;;;;4960899;28;20449;-73
2021/10/06 05:41:32;;;;;;;;;;;9.70;99.90;;;;;;4977215;28;19936;-74
2021/10/06 05:44:04;;;;;;;;;;;9.70;99.90;;;;;;4993700;28;19926;-72
2021/10/06 05:46:36;;;;;;;;;;;9.80;99.90;;;;;;4974244;28;20296;-76
2021/10/06 05:49:07;;;;;;;;;;;9.70;99.90;;;;;;4995890;28;20385;-73
2021/10/06 05:51:34;;;;;;;;;;;9.70;99.90;;;;;;4982726;28;20001;-73
2021/10/06 05:54:06;;;;;;;;;;;9.70;99.90;;;;;;4977027;28;19925;-73
2021/10/06 05:56:32;;;;;;;;;;;9.70;99.90;;;;;;4987234;28;20024;-73
2021/10/06 05:59:04;;;;;;;;;;;9.70;99.90;;;;;;4977460;28;19988;-73
2021/10/06 06:01:36;;;;;;;;;;;9.70;99.90;;;;;;4961410;28;19925;-73
2021/10/06 06:04:05;;;;;;;;;;;9.70;99.90;;;;;;4976366;28;19949;-72
2021/10/06 06:06:41;;;;;;;;;;;9.70;99.90;;;;;;4976097;28;19932;-73
2021/10/06 06:09:13;;;;;;;;;;;9.60;99.90;;;;;;4973193;28;19930;-72
2021/10/06 06:11:45;;;;;;;;;;;9.60;99.90;;;;;;4978081;28;19926;-73
2021/10/06 06:14:17;;;;;;;;;;;9.60;99.90;;;;;;4976675;28;19925;-72
2021/10/06 06:16:49;;;;;;;;;;;9.60;99.90;;;;;;4965786;28;20300;-73
2021/10/06 06:19:16;;;;;;;;;;;9.60;99.90;;;;;;4977493;28;20396;-72
2021/10/06 06:21:47;;;;;;;;;;;9.60;99.90;;;;;;4994827;28;19932;-73
2021/10/06 06:24:19;;;;;;;;;;;9.60;99.90;;;;;;4995458;28;19969;-73
2021/10/06 06:26:51;;;;;;;;;;;9.60;99.90;;;;;;4987950;28;20288;-73
2021/10/06 06:29:17;;;;;;;;;;;9.60;99.90;;;;;;4979637;28;19926;-72
2021/10/06 06:31:44;;;;;;;;;;;9.60;99.90;;;;;;4976150;28;19926;-73
2021/10/06 06:34:11;;;;;;;;;;;9.60;99.90;;;;;;4993744;28;19926;-73
2021/10/06 06:36:42;;;;;;;;;;;9.60;99.90;;;;;;4961161;28;19926;-73
2021/10/06 06:39:09;;;;;;;;;;;9.60;99.90;;;;;;4993555;28;20352;-73
2021/10/06 06:41:36;;;;;;;;;;;9.60;99.90;;;;;;4994074;28;19933;-73
2021/10/06 06:44:03;;;;;;;;;;;9.60;99.90;;;;;;4976271;28;20415;-74
2021/10/06 06:46:30;;;;;;;;;;;9.60;99.90;;;;;;4993207;28;19925;-73
2021/10/06 06:49:02;;;;;;;;;;;9.60;99.90;;;;;;4994708;28;19935;-73
2021/10/06 06:51:33;;;;;;;;;;;9.70;99.90;;;;;;4989493;28;20608;-73
2021/10/06 06:54:05;;;;;;;;;;;9.70;99.90;;;;;;5012797;28;19925;-73
2021/10/06 06:56:40;;;;;;;;;;;9.70;99.90;;;;;;5009437;28;20020;-73
2021/10/06 06:59:12;;;;;;;;;;;9.70;99.90;;;;;;4977809;28;20029;-73
2021/10/06 07:01:38;;;;;;;;;;;9.70;99.90;;;;;;4977216;28;19932;-73
2021/10/06 07:04:10;;;;;;;;;;;9.70;99.90;;;;;;4994459;28;20275;-73
2021/10/06 07:06:37;;;;;;;;;;;9.70;99.90;;;;;;4983275;28;19933;-72
2021/10/06 07:09:04;;;;;;;;;;;9.80;99.90;;;;;;4991557;28;20304;-73
2021/10/06 07:11:36;;;;;;;;;;;9.80;99.90;;;;;;4975997;28;19933;-73
2021/10/06 07:14:03;;;;;;;;;;;9.90;99.90;;;;;;4975539;28;20388;-74
2021/10/06 07:16:30;;;;;;;;;;;9.90;99.90;;;;;;4975529;28;19926;-73
2021/10/06 07:18:57;;;;;;;;;;;9.90;99.90;;;;;;4990427;28;19930;-73
2021/10/06 07:21:29;;;;;;;;;;;9.90;99.90;;;;;;4991062;28;19925;-73
2021/10/06 07:24:00;;;;;;;;;;;9.90;99.90;;;;;;4972917;28;20579;-73
2021/10/06 07:26:32;;;;;;;;;;;9.90;99.90;;;;;;4991469;28;19926;-73
2021/10/06 07:29:04;;;;;;;;;;;9.90;99.90;;;;;;4984487;28;20340;-74
2021/10/06 07:31:36;;;;;;;;;;;10.00;99.90;;;;;;4993547;28;19925;-73
2021/10/06 07:34:02;;;;;;;;;;;10.00;99.90;;;;;;4978641;28;19934;-73
2021/10/06 07:36:34;;;;;;;;;;;10.00;99.90;;;;;;4994001;28;19926;-73
2021/10/06 07:39:06;;;;;;;;;;;10.00;99.90;;;;;;4983236;28;19934;-72
2021/10/06 07:41:38;;;;;;;;;;;10.00;99.90;;;;;;4975134;28;19926;-71
2021/10/06 07:44:05;;;;;;;;;;;10.10;99.90;;;;;;4974921;28;19926;-72
2021/10/06 07:46:37;;;;;;;;;;;10.10;99.90;;;;;;4975137;28;20362;-73
2021/10/06 07:49:04;;;;;;;;;;;10.10;99.90;;;;;;4987417;28;19925;-70
2021/10/06 07:51:36;;;;;;;;;;;10.20;99.90;;;;;;4994786;28;19925;-71
2021/10/06 07:54:08;;;;;;;;;;;10.20;99.90;;;;;;5011897;28;20297;-73
2021/10/06 07:56:40;;;;;;;;;;;10.30;99.90;;;;;;5012428;28;20450;-73
2021/10/06 07:59:11;;;;;;;;;;;10.30;99.90;;;;;;4994567;28;19953;-70
2021/10/06 08:01:46;;;;;;;;;;;10.40;99.90;;;;;;5011967;28;19964;-71
2021/10/06 08:04:17;;;;;;;;;;;10.40;99.90;;;;;;4955268;28;19926;-70
2021/10/06 08:06:49;;;;;;;;;;;10.50;99.90;;;;;;4978446;28;20400;-71
2021/10/06 08:09:16;;;;;;;;;;;10.60;99.90;;;;;;4991190;28;19940;-71
2021/10/06 08:11:43;;;;;;;;;;;10.60;99.90;;;;;;5001915;28;20384;-70
2021/10/06 08:14:10;;;;;;;;;;;10.80;99.90;;;;;;4986734;28;19925;-70
2021/10/06 08:16:42;;;;;;;;;;;10.80;99.90;;;;;;4975153;28;19960;-72
2021/10/06 08:19:08;;;;;;;;;;;10.90;99.90;;;;;;5006700;28;20389;-71
2021/10/06 08:21:40;;;;;;;;;;;10.90;99.90;;;;;;4973447;28;19984;-71
2021/10/06 08:24:07;;;;;;;;;;;11.00;99.90;;;;;;4990821;28;20705;-73
2021/10/06 08:26:40;;;;;;;;;;;11.10;99.90;;;;;;4992384;28;19957;-71
2021/10/06 08:29:07;;;;;;;;;;;11.30;99.90;;;;;;4990743;28;19926;-72
2021/10/06 08:31:39;;;;;;;;;;;11.30;99.90;;;;;;4984327;28;20373;-71
2021/10/06 08:34:06;;;;;;;;;;;11.40;99.90;;;;;;4990214;28;19925;-72
2021/10/06 08:36:38;;;;;;;;;;;11.40;99.90;;;;;;4996172;28;19925;-71
2021/10/06 08:39:08;;;;;;;;;;;11.50;99.90;;;;;;4976709;28;20335;-72
2021/10/06 08:41:41;;;;;;;;;;;11.60;99.90;;;;;;4995794;28;19929;-72
2021/10/06 08:44:13;;;;;;;;;;;11.60;99.90;;;;;;4991256;28;19952;-72
2021/10/06 08:46:39;;;;;;;;;;;11.70;99.90;;;;;;4994357;28;19925;-71
2021/10/06 08:49:11;;;;;;;;;;;11.60;99.90;;;;;;4991219;28;19927;-71
2021/10/06 08:51:43;;;;;;;;;;;11.60;99.90;;;;;;4975376;28;19929;-72
2021/10/06 08:54:15;;;;;;;;;;;11.60;99.90;;;;;;4975617;28;19926;-72
2021/10/06 08:56:43;;;;;;;;;;;11.60;99.90;;;;;;4994492;28;20444;-72
2021/10/06 08:59:15;;;;;;;;;;;11.70;99.90;;;;;;4979196;28;19975;-71
2021/10/06 09:01:47;;;;;;;;;;;11.70;99.90;;;;;;4978174;28;19976;-71
2021/10/06 09:04:29;;;;;;;;;;;11.60;99.90;;;;;;4977713;28;20332;-71
2021/10/06 09:07:00;;;;;;;;;;;11.60;99.90;;;;;;4971710;28;20016;-72
2021/10/06 09:09:32;;;;;;;;;;;11.60;99.90;;;;;;4987824;28;19929;-71
2021/10/06 09:12:07;;;;;;;;;;;11.60;99.90;;;;;;4998126;28;20114;-71
2021/10/06 09:14:41;;;;;;;;;;;11.60;99.90;;;;;;5014369;28;19926;-74
2021/10/06 09:17:14;;;;;;;;;;;11.60;99.90;;;;;;5015065;28;19952;-71
2021/10/06 09:19:49;;;;;;;;;;;11.60;99.90;;;;;;4997441;28;19929;-72
2021/10/06 09:22:22;;;;;;;;;;;11.70;99.90;;;;;;4989459;28;19926;-71
2021/10/06 09:24:49;;;;;;;;;;;11.70;99.90;;;;;;4977292;28;20301;-71
2021/10/06 09:27:20;;;;;;;;;;;11.80;99.90;;;;;;4975778;28;19930;-71
2021/10/06 09:29:57;;;;;;;;;;;11.90;99.90;;;;;;4958622;28;20305;-73
2021/10/06 09:32:25;;;;;;;;;;;12.00;99.90;;;;;;4984541;28;19929;-72
2021/10/06 09:35:05;;;;;;;;;;;12.00;99.90;;;;;;4983136;28;19930;-73
2021/10/06 09:37:33;;;;;;;;;;;11.90;99.90;;;;;;4978238;28;20356;-73
2021/10/06 09:40:00;;;;;;;;;;;11.90;99.90;;;;;;4977820;28;19933;-73
2021/10/06 09:42:27;;;;;;;;;;;11.90;99.90;;;;;;4995521;28;19930;-72
2021/10/06 09:44:55;;;;;;;;;;;12.00;99.90;;;;;;4977672;28;19926;-73
2021/10/06 09:47:27;;;;;;;;;;;11.90;99.90;;;;;;4977881;28;20400;-72
2021/10/06 09:50:01;;;;;;;;;;;12.10;99.90;;;;;;4962984;28;20000;-73
2021/10/06 09:52:34;;;;;;;;;;;12.10;99.90;;;;;;4983002;28;19926;-72
2021/10/06 09:55:02;;;;;;;;;;;12.20;99.90;;;;;;4975770;28;19961;-73
2021/10/06 09:57:31;;;;;;;;;;;12.20;99.90;;;;;;4995263;28;19926;-72
2021/10/06 10:00:04;;;;;;;;;;;12.30;99.90;;;;;;4977072;28;19930;-71
2021/10/06 10:02:37;;;;;;;;;;;12.40;99.90;;;;;;4989718;28;20004;-72
2021/10/06 10:05:05;;;;;;;;;;;12.50;99.90;;;;;;5013922;28;19972;-72
2021/10/06 10:07:32;;;;;;;;;;;12.60;99.90;;;;;;4996578;28;19926;-73
2021/10/06 10:10:00;;;;;;;;;;;12.60;99.90;;;;;;4992147;28;19934;-72
2021/10/06 10:12:32;;;;;;;;;;;12.70;99.90;;;;;;4978266;28;19925;-73
2021/10/06 10:15:04;;;;;;;;;;;12.70;99.90;;;;;;4993280;28;19934;-72
2021/10/06 10:17:36;;;;;;;;;;;12.80;99.90;;;;;;4996702;28;19925;-73
2021/10/06 10:20:08;;;;;;;;;;;13.00;99.90;;;;;;4991615;28;20400;-72
2021/10/06 10:22:42;;;;;;;;;;;13.00;99.90;;;;;;4980291;28;19925;-72
2021/10/06 10:25:17;;;;;;;;;;;12.90;99.90;;;;;;4978187;28;19929;-72
2021/10/06 10:28:09;;;;;;;;;;;12.80;99.90;;;;;;4977636;28;20020;-72
2021/10/06 10:30:37;;;;;;;;;;;12.80;99.90;;;;;;4991344;28;19965;-73
2021/10/06 10:33:09;;;;;;;;;;;12.70;99.90;;;;;;4995684;28;20530;-72
2021/10/06 10:35:42;;;;;;;;;;;12.70;99.90;;;;;;4984828;28;19933;-72
2021/10/06 10:38:16;;;;;;;;;;;12.60;99.90;;;;;;4995083;28;19949;-72
2021/10/06 10:40:49;;;;;;;;;;;12.60;99.90;;;;;;4990571;28;20468;-73
2021/10/06 10:43:27;;;;;;;;;;;12.70;99.90;;;;;;4996657;28;19954;-72
2021/10/06 10:45:59;;;;;;;;;;;12.70;99.90;;;;;;4988370;28;20161;-73
2021/10/06 10:48:30;;;;;;;;;;;12.70;99.90;;;;;;4978713;28;19972;-71
2021/10/06 10:51:06;;;;;;;;;;;12.60;99.90;;;;;;4975689;28;19933;-71
2021/10/06 10:53:51;;;;;;;;;;;12.70;99.90;;;;;;4975873;28;19929;-72
2021/10/06 10:56:38;;;;;;;;;;;12.70;99.90;;;;;;4973866;28;19933;-72
2021/10/06 10:59:11;;;;;;;;;;;12.60;99.90;;;;;;4991015;28;20324;-71
2021/10/06 11:01:46;;;;;;;;;;;12.70;99.90;;;;;;5003320;28;20345;-72
2021/10/06 11:04:14;;;;;;;;;;;12.70;99.90;;;;;;4970289;28;19925;-72
2021/10/06 11:06:43;;;;;;;;;;;12.90;99.90;;;;;;4994936;28;20436;-75
2021/10/06 11:09:29;;;;;;;;;;;12.90;99.90;;;;;;4965962;28;20012;-74
2021/10/06 11:12:06;;;;;;;;;;;12.80;99.90;;;;;;4997216;28;19933;-73
2021/10/06 11:14:34;;;;;;;;;;;12.70;99.90;;;;;;4991582;28;19949;-73
2021/10/06 11:17:14;;;;;;;;;;;12.70;99.90;;;;;;4991423;28;19925;-73
2021/10/06 11:19:56;;;;;;;;;;;12.70;99.90;;;;;;4960063;28;19933;-73
2021/10/06 11:22:22;;;;;;;;;;;12.60;99.90;;;;;;4975072;28;19949;-73
2021/10/06 11:24:54;;;;;;;;;;;12.60;99.90;;;;;;4976254;28;19929;-73
2021/10/06 11:27:21;;;;;;;;;;;12.60;99.90;;;;;;4978715;28;19932;-73
2021/10/06 11:29:49;;;;;;;;;;;12.60;99.90;;;;;;4994974;28;19929;-73
2021/10/06 11:32:17;;;;;;;;;;;12.50;99.90;;;;;;4961604;28;20017;-73
2021/10/06 11:34:49;;;;;;;;;;;12.60;99.90;;;;;;4974891;28;19933;-72
2021/10/06 11:37:22;;;;;;;;;;;12.70;99.90;;;;;;4975298;28;20393;-72
2021/10/06 11:39:55;;;;;;;;;;;12.60;99.90;;;;;;4975835;28;19951;-74
2021/10/06 11:42:31;;;;;;;;;;;12.70;99.90;;;;;;4969068;28;19972;-74
2021/10/06 11:44:58;;;;;;;;;;;12.70;99.90;;;;;;4985952;28;19984;-72
2021/10/06 11:47:30;;;;;;;;;;;12.80;99.90;;;;;;4971519;28;19933;-72
2021/10/06 11:50:02;;;;;;;;;;;12.90;99.90;;;;;;4975062;28;19932;-72
2021/10/06 11:52:29;;;;;;;;;;;12.90;99.90;;;;;;4978139;28;19926;-72
2021/10/06 11:55:01;;;;;;;;;;;13.10;99.90;;;;;;4971348;28;19977;-73
2021/10/06 11:57:28;;;;;;;;;;;13.10;99.90;;;;;;4992283;28;19936;-71
2021/10/06 12:00:00;;;;;;;;;;;13.30;99.90;;;;;;4971533;28;19936;-73
2021/10/06 12:02:27;;;;;;;;;;;13.30;99.90;;;;;;4974808;28;19933;-72
2021/10/06 12:04:56;;;;;;;;;;;13.30;99.90;;;;;;4975211;28;20308;-74
2021/10/06 12:07:24;;;;;;;;;;;13.20;99.90;;;;;;4994400;28;19932;-73
2021/10/06 12:09:58;;;;;;;;;;;13.30;99.90;;;;;;4986628;28;19933;-72
2021/10/06 12:12:31;;;;;;;;;;;13.40;99.90;;;;;;4974232;28;19944;-72
2021/10/06 12:15:01;;;;;;;;;;;13.40;99.90;;;;;;4974307;28;19976;-72
2021/10/06 12:17:35;;;;;;;;;;;13.50;99.90;;;;;;4974478;28;19925;-72
2021/10/06 12:20:04;;;;;;;;;;;13.50;99.90;;;;;;4974368;28;19925;-72
2021/10/06 12:22:30;;;;;;;;;;;13.60;99.90;;;;;;4989657;28;19980;-72
2021/10/06 12:24:57;;;;;;;;;;;13.60;99.90;;;;;;4968842;28;19972;-73
2021/10/06 12:27:30;;;;;;;;;;;13.60;99.90;;;;;;4989096;28;20392;-73
2021/10/06 12:30:09;;;;;;;;;;;13.70;99.90;;;;;;4980731;28;19929;-73
2021/10/06 12:32:42;;;;;;;;;;;13.80;99.90;;;;;;4971365;28;19930;-73
2021/10/06 12:35:21;;;;;;;;;;;13.80;99.90;;;;;;5014718;28;19925;-72
2021/10/06 12:37:53;;;;;;;;;;;13.90;99.90;;;;;;4992941;28;19941;-73
2021/10/06 12:40:37;;;;;;;;;;;13.80;99.90;;;;;;4974324;28;20320;-72
2021/10/06 12:43:04;;;;;;;;;;;13.80;99.90;;;;;;4992047;28;19925;-72
2021/10/06 12:45:31;;;;;;;;;;;13.80;99.90;;;;;;4977938;28;19933;-72
2021/10/06 12:47:58;;;;;;;;;;;13.70;99.90;;;;;;4959360;28;20381;-73
2021/10/06 12:50:25;;;;;;;;;;;13.50;99.90;;;;;;4977910;28;20024;-73
2021/10/06 12:52:52;;;;;;;;;;;13.50;99.90;;;;;;4976945;28;19926;-73
2021/10/06 12:55:19;;;;;;;;;;;13.50;99.90;;;;;;4977735;28;19992;-73
2021/10/06 12:58:03;;;;;;;;;;;13.60;99.90;;;;;;4975781;28;19926;-73
2021/10/06 13:00:30;;;;;;;;;;;13.80;99.90;;;;;;5004542;28;20300;-73
2021/10/06 13:03:01;;;;;;;;;;;13.80;99.90;;;;;;4976283;28;19926;-72
2021/10/06 13:05:28;;;;;;;;;;;13.60;99.90;;;;;;4975970;28;19968;-73
2021/10/06 13:07:55;;;;;;;;;;;13.40;99.90;;;;;;4979625;28;19936;-73
2021/10/06 13:10:22;;;;;;;;;;;13.20;99.90;;;;;;4965441;28;19926;-73
2021/10/06 13:12:54;;;;;;;;;;;13.10;99.90;;;;;;4977560;28;19945;-72
2021/10/06 13:15:21;;;;;;;;;;;13.10;99.90;;;;;;4976997;28;19933;-73
2021/10/06 13:17:47;;;;;;;;;;;13.10;99.90;;;;;;4977760;28;19926;-73
2021/10/06 13:20:19;;;;;;;;;;;13.00;99.90;;;;;;4977029;28;19932;-73
2021/10/06 13:22:51;;;;;;;;;;;13.00;99.90;;;;;;4977352;28;19926;-73
2021/10/06 13:25:17;;;;;;;;;;;12.90;99.90;;;;;;4978496;28;19926;-74
2021/10/06 13:27:44;;;;;;;;;;;13.00;99.90;;;;;;4996582;28;19930;-73
2021/10/06 13:30:16;;;;;;;;;;;12.90;99.90;;;;;;4981437;28;20392;-73
2021/10/06 13:32:43;;;;;;;;;;;12.90;99.90;;;;;;5014603;28;19926;-71
2021/10/06 13:35:10;;;;;;;;;;;12.90;99.90;;;;;;5013514;28;19926;-73
2021/10/06 13:37:36;;;;;;;;;;;13.00;99.90;;;;;;4996475;28;19937;-73
2021/10/06 13:40:08;;;;;;;;;;;13.10;99.90;;;;;;4987487;28;19926;-73
2021/10/06 13:42:35;;;;;;;;;;;13.20;99.90;;;;;;4980393;28;19929;-72
2021/10/06 13:45:02;;;;;;;;;;;13.20;99.90;;;;;;4996439;28;19925;-73
2021/10/06 13:47:29;;;;;;;;;;;13.30;99.90;;;;;;4996609;28;19975;-73
2021/10/06 13:50:01;;;;;;;;;;;13.20;99.90;;;;;;4995995;28;19936;-73
2021/10/06 13:52:27;;;;;;;;;;;13.20;99.90;;;;;;4973111;28;19940;-72
2021/10/06 13:54:54;;;;;;;;;;;13.10;99.90;;;;;;4977980;28;19936;-72
2021/10/06 13:57:26;;;;;;;;;;;13.00;99.90;;;;;;4960508;28;20007;-72
2021/10/06 13:59:53;;;;;;;;;;;12.90;99.90;;;;;;4976093;28;20012;-73
2021/10/06 14:02:25;;;;;;;;;;;13.00;99.90;;;;;;4993932;28;19929;-72
2021/10/06 14:04:57;;;;;;;;;;;13.00;99.90;;;;;;4992100;28;19933;-72
2021/10/06 14:07:28;;;;;;;;;;;13.10;99.90;;;;;;4977657;28;19941;-72
2021/10/06 14:10:00;;;;;;;;;;;13.00;99.90;;;;;;4971185;28;19973;-73
2021/10/06 14:12:27;;;;;;;;;;;13.00;99.90;;;;;;4976159;28;19926;-73
2021/10/06 14:14:54;;;;;;;;;;;13.00;99.90;;;;;;4975788;28;19933;-72
2021/10/06 14:17:21;;;;;;;;;;;13.00;99.90;;;;;;4977939;28;19932;-72
2021/10/06 14:19:52;;;;;;;;;;;13.10;99.90;;;;;;4972749;28;19926;-72
2021/10/06 14:22:24;;;;;;;;;;;13.10;99.90;;;;;;4976872;28;20389;-72
2021/10/06 14:24:51;;;;;;;;;;;13.20;99.90;;;;;;4975809;28;19926;-72
2021/10/06 14:27:18;;;;;;;;;;;13.20;99.90;;;;;;4993855;28;19973;-72
2021/10/06 14:29:51;;;;;;;;;;;13.20;99.90;;;;;;4970411;28;19932;-72
2021/10/06 14:32:18;;;;;;;;;;;13.10;99.90;;;;;;4972030;28;19932;-73
2021/10/06 14:34:44;;;;;;;;;;;13.10;99.90;;;;;;4977302;28;19930;-72
2021/10/06 14:37:16;;;;;;;;;;;13.00;99.90;;;;;;4968895;28;19926;-72